createdAt,value
2019-05-11T00:00:28.421Z,65.30
2019-05-11T00:02:33.186Z,65.20
2019-05-11T00:04:41.008Z,65.30
2019-05-11T00:06:45.796Z,65.30
2019-05-11T00:08:53.357Z,65.30
2019-05-11T00:11:01.306Z,65.20
2019-05-11T00:13:09.104Z,65.40
2019-05-11T00:15:14.949Z,65.00
2019-05-11T00:17:19.782Z,65.10
2019-05-11T00:19:24.544Z,65.20
2019-05-11T00:21:29.234Z,66.10
2019-05-11T00:23:33.990Z,65.30
2019-05-11T00:25:39.776Z,65.10
2019-05-11T00:27:44.603Z,65.10
2019-05-11T00:29:49.395Z,65.10
2019-05-11T00:31:54.155Z,65.10
2019-05-11T00:33:58.900Z,65.10
2019-05-11T00:36:03.626Z,65.20
2019-05-11T00:38:08.689Z,65.00
2019-05-11T00:40:14.962Z,65.00
2019-05-11T00:42:19.923Z,65.00
2019-05-11T00:44:24.673Z,65.10
2019-05-11T00:46:29.502Z,65.10
2019-05-11T00:48:34.196Z,65.20
2019-05-11T00:50:40.024Z,65.30
2019-05-11T00:52:47.668Z,65.30
2019-05-11T00:54:52.358Z,65.30
2019-05-11T00:56:57.159Z,65.30
2019-05-11T00:59:02.528Z,65.40
2019-05-11T01:01:07.372Z,65.50
2019-05-11T01:03:12.195Z,65.60
2019-05-11T01:05:16.945Z,65.50
2019-05-11T01:07:24.667Z,65.40
2019-05-11T01:09:29.357Z,65.30
2019-05-11T01:11:34.061Z,65.60
2019-05-11T01:13:38.737Z,65.60
2019-05-11T01:15:43.493Z,65.60
2019-05-11T01:17:48.310Z,65.60
2019-05-11T01:19:53.057Z,65.60
2019-05-11T01:21:58.798Z,65.50
2019-05-11T01:24:03.483Z,65.60
2019-05-11T01:26:08.361Z,65.50
2019-05-11T01:28:13.515Z,65.50
2019-05-11T01:30:18.191Z,65.50
2019-05-11T01:32:22.969Z,65.50
2019-05-11T01:34:28.629Z,65.50
2019-05-11T01:36:34.435Z,65.70
2019-05-11T01:38:39.233Z,65.70
2019-05-11T01:40:57.668Z,65.90
2019-05-11T01:42:50.664Z,66.00
2019-05-11T01:44:55.394Z,65.80
2019-05-11T01:47:00.090Z,65.80
2019-05-11T01:49:04.837Z,65.70
2019-05-11T01:51:09.539Z,65.80
2019-05-11T01:53:15.263Z,65.80
2019-05-11T01:55:20.671Z,65.80
2019-05-11T01:57:25.352Z,65.80
2019-05-11T01:59:30.121Z,65.80
2019-05-11T02:01:35.187Z,65.80
2019-05-11T02:03:39.891Z,65.80
2019-05-11T02:05:44.579Z,65.80
2019-05-11T02:07:49.349Z,65.90
2019-05-11T02:09:54.028Z,65.80
2019-05-11T02:11:58.787Z,66.00
2019-05-11T02:14:03.918Z,65.80
2019-05-11T02:18:21.509Z,65.80
2019-05-11T02:20:26.358Z,65.90
2019-05-11T02:22:33.864Z,65.80
2019-05-11T02:24:38.556Z,65.80
2019-05-11T02:26:43.332Z,65.80
2019-05-11T02:28:48.134Z,65.80
2019-05-11T02:30:52.911Z,65.80
2019-05-11T02:32:57.674Z,65.80
2019-05-11T02:35:02.464Z,65.90
2019-05-11T02:37:11.365Z,65.80
2019-05-11T02:39:16.155Z,65.80
2019-05-11T02:41:35.687Z,66.10
2019-05-11T02:43:27.392Z,66.00
2019-05-11T02:45:38.188Z,66.00
2019-05-11T02:47:42.935Z,66.00
2019-05-11T02:49:47.717Z,65.90
2019-05-11T02:51:52.393Z,66.70
2019-05-11T02:53:58.569Z,66.00
2019-05-11T02:56:03.336Z,65.90
2019-05-11T02:58:08.352Z,66.00
2019-05-11T03:00:13.135Z,66.10
2019-05-11T03:02:17.889Z,66.20
2019-05-11T03:04:22.650Z,66.00
2019-05-11T03:06:27.337Z,66.80
2019-05-11T03:08:35.027Z,66.10
2019-05-11T03:10:39.794Z,66.10
2019-05-11T03:12:44.545Z,66.00
2019-05-11T03:14:49.747Z,66.00
2019-05-11T03:16:56.140Z,66.00
2019-05-11T03:19:01.199Z,66.00
2019-05-11T03:21:05.996Z,65.90
2019-05-11T03:23:10.766Z,65.80
2019-05-11T03:25:15.559Z,65.80
2019-05-11T03:27:20.324Z,65.90
2019-05-11T03:29:25.085Z,65.80
2019-05-11T03:31:29.879Z,65.90
2019-05-11T03:33:34.636Z,66.00
2019-05-11T03:35:39.434Z,65.80
2019-05-11T03:37:44.173Z,66.00
2019-05-11T03:39:48.937Z,66.00
2019-05-11T03:41:53.800Z,66.10
2019-05-11T03:43:58.576Z,66.00
2019-05-11T03:46:03.338Z,66.00
2019-05-11T03:48:08.076Z,66.00
2019-05-11T03:50:12.881Z,66.10
2019-05-11T03:52:17.888Z,66.10
2019-05-11T03:54:22.804Z,66.20
2019-05-11T03:56:27.602Z,66.10
2019-05-11T03:58:32.354Z,66.10
2019-05-11T04:00:37.132Z,66.20
2019-05-11T04:02:41.891Z,66.20
2019-05-11T04:04:46.699Z,66.30
2019-05-11T04:06:51.461Z,66.30
2019-05-11T04:08:56.246Z,66.40
2019-05-11T04:11:01.253Z,66.40
2019-05-11T04:13:06.029Z,66.40
2019-05-11T04:15:10.794Z,66.40
2019-05-11T04:17:15.551Z,66.30
2019-05-11T04:19:20.252Z,66.40
2019-05-11T04:21:25.047Z,67.20
2019-05-11T04:23:32.538Z,66.20
2019-05-11T04:25:37.282Z,66.40
2019-05-11T04:27:41.997Z,66.30
2019-05-11T04:29:47.081Z,66.30
2019-05-11T04:31:51.834Z,66.40
2019-05-11T04:33:56.598Z,66.50
2019-05-11T04:36:01.275Z,66.60
2019-05-11T04:38:06.182Z,66.70
2019-05-11T04:40:10.966Z,66.70
2019-05-11T04:42:15.680Z,66.70
2019-05-11T04:44:20.348Z,66.70
2019-05-11T04:46:25.126Z,66.60
2019-05-11T04:48:29.894Z,66.60
2019-05-11T04:50:37.648Z,66.60
2019-05-11T04:52:46.182Z,66.60
2019-05-11T04:54:50.958Z,66.50
2019-05-11T04:56:55.716Z,66.60
2019-05-11T04:59:00.434Z,66.60
2019-05-11T05:01:05.342Z,66.50
2019-05-11T05:03:10.171Z,66.50
2019-05-11T05:05:14.861Z,66.50
2019-05-11T05:07:19.630Z,66.50
2019-05-11T05:09:24.449Z,66.50
2019-05-11T05:11:30.755Z,66.50
2019-05-11T05:13:38.680Z,66.50
2019-05-11T05:15:43.384Z,66.50
2019-05-11T05:17:48.131Z,66.50
2019-05-11T05:19:52.915Z,66.40
2019-05-11T05:21:57.658Z,66.50
2019-05-11T05:24:02.458Z,66.50
2019-05-11T05:26:08.292Z,66.50
2019-05-11T05:28:12.981Z,66.60
2019-05-11T05:30:17.718Z,66.60
2019-05-11T05:32:22.435Z,66.50
2019-05-11T05:34:27.177Z,66.60
2019-05-11T05:36:31.975Z,66.60
2019-05-11T05:38:39.473Z,66.50
2019-05-11T05:40:44.243Z,66.50
2019-05-11T05:42:48.933Z,66.50
2019-05-11T05:44:53.636Z,66.50
2019-05-11T05:46:58.313Z,66.70
2019-05-11T05:49:03.106Z,66.80
2019-05-11T05:51:07.881Z,66.70
2019-05-11T05:53:15.388Z,66.80
2019-05-11T05:55:20.159Z,66.70
2019-05-11T05:57:24.892Z,66.70
2019-05-11T05:59:29.687Z,66.70
2019-05-11T06:01:34.429Z,66.70
2019-05-11T06:03:39.197Z,66.60
2019-05-11T06:05:43.887Z,66.60
2019-05-11T06:07:48.677Z,66.50
2019-05-11T06:09:53.435Z,66.50
2019-05-11T06:11:58.207Z,66.50
2019-05-11T06:14:03.022Z,66.50
2019-05-11T06:16:07.823Z,66.50
2019-05-11T06:18:12.867Z,66.70
2019-05-11T06:20:17.645Z,66.60
2019-05-11T06:22:22.387Z,66.70
2019-05-11T06:24:27.138Z,66.70
2019-05-11T06:26:35.957Z,66.80
2019-05-11T06:28:40.771Z,66.90
2019-05-11T06:30:45.602Z,67.10
2019-05-11T06:32:50.303Z,67.20
2019-05-11T06:34:55.049Z,67.20
2019-05-11T06:36:59.859Z,67.20
2019-05-11T06:39:07.389Z,67.30
2019-05-11T06:41:12.146Z,68.00
2019-05-11T06:43:16.826Z,67.30
2019-05-11T06:45:21.504Z,67.40
2019-05-11T06:47:29.417Z,67.60
2019-05-11T06:49:36.918Z,67.80
2019-05-11T06:51:44.718Z,67.70
2019-05-11T06:53:52.184Z,67.80
2019-05-11T06:55:56.976Z,67.60
2019-05-11T06:58:01.731Z,67.40
2019-05-11T07:00:09.553Z,67.40
2019-05-11T07:02:17.090Z,67.10
2019-05-11T07:04:21.761Z,67.00
2019-05-11T07:06:30.427Z,66.90
2019-05-11T07:08:36.802Z,66.60
2019-05-11T07:10:41.544Z,66.60
2019-05-11T07:12:46.236Z,66.70
2019-05-11T07:14:53.754Z,66.80
2019-05-11T07:17:01.508Z,66.90
2019-05-11T07:19:06.332Z,66.80
2019-05-11T07:21:11.074Z,66.60
2019-05-11T07:23:16.001Z,66.60
2019-05-11T07:25:20.742Z,66.30
2019-05-11T07:27:25.558Z,66.50
2019-05-11T07:29:30.315Z,66.10
2019-05-11T07:31:35.335Z,65.80
2019-05-11T07:33:44.058Z,65.90
2019-05-11T07:35:53.156Z,65.70
2019-05-11T07:38:03.679Z,65.30
2019-05-11T07:40:08.614Z,65.20
2019-05-11T07:42:18.069Z,65.30
2019-05-11T07:44:35.042Z,65.10
2019-05-11T07:46:41.583Z,64.90
2019-05-11T07:48:47.946Z,65.50
2019-05-11T07:50:52.910Z,64.70
2019-05-11T07:52:58.850Z,64.80
2019-05-11T07:55:04.309Z,65.00
2019-05-11T07:57:10.151Z,65.30
2019-05-11T07:59:14.969Z,65.50
2019-05-11T08:01:22.371Z,65.80
2019-05-11T08:03:28.367Z,65.70
2019-05-11T08:05:33.314Z,65.90
2019-05-11T08:07:38.101Z,66.10
2019-05-11T08:09:42.862Z,66.00
2019-05-11T08:11:47.893Z,66.20
2019-05-11T08:13:52.910Z,66.10
2019-05-11T08:15:57.956Z,65.70
2019-05-11T08:18:03.908Z,65.20
2019-05-11T08:20:08.725Z,65.20
2019-05-11T08:22:13.421Z,65.40
2019-05-11T08:24:19.211Z,65.20
2019-05-11T08:26:23.931Z,64.80
2019-05-11T08:28:28.897Z,64.90
2019-05-11T08:30:35.330Z,64.60
2019-05-11T08:32:40.161Z,64.30
2019-05-11T08:34:44.953Z,64.40
2019-05-11T08:36:49.693Z,64.50
2019-05-11T08:38:59.158Z,63.80
2019-05-11T08:41:08.837Z,63.50
2019-05-11T08:43:13.598Z,62.90
2019-05-11T08:45:24.548Z,63.10
2019-05-11T08:47:30.586Z,63.40
2019-05-11T08:49:38.477Z,61.30
2019-05-11T08:51:43.260Z,62.00
2019-05-11T08:53:51.033Z,61.80
2019-05-11T08:55:55.820Z,61.70
2019-05-11T08:58:03.288Z,61.10
2019-05-11T09:00:09.779Z,61.10
2019-05-11T09:02:18.615Z,61.50
2019-05-11T09:04:23.563Z,61.60
2019-05-11T09:06:28.525Z,61.60
2019-05-11T09:08:38.619Z,61.00
2019-05-11T09:10:45.326Z,60.60
2019-05-11T09:12:54.277Z,60.70
2019-05-11T09:15:01.786Z,60.40
2019-05-11T09:17:11.112Z,59.80
2019-05-11T09:19:17.786Z,59.50
2019-05-11T09:21:23.336Z,59.60
2019-05-11T09:23:36.965Z,58.70
2019-05-11T09:25:38.456Z,58.80
2019-05-11T09:27:43.576Z,58.70
2019-05-11T09:29:51.503Z,59.30
2019-05-11T09:32:01.503Z,58.50
2019-05-11T09:34:09.208Z,58.90
2019-05-11T09:36:18.448Z,58.90
2019-05-11T09:38:23.208Z,59.40
2019-05-11T09:40:28.491Z,59.70
2019-05-11T09:42:35.200Z,58.50
2019-05-11T09:44:42.877Z,57.50
2019-05-11T09:46:47.929Z,58.10
2019-05-11T09:48:52.839Z,58.30
2019-05-11T09:50:58.754Z,58.80
2019-05-11T09:53:03.661Z,58.60
2019-05-11T09:55:08.905Z,58.50
2019-05-11T09:57:18.503Z,57.80
2019-05-11T09:59:28.253Z,57.80
2019-05-11T10:01:33.137Z,58.00
2019-05-11T10:03:38.661Z,57.80
2019-05-11T10:05:48.552Z,57.90
2019-05-11T10:07:54.385Z,57.60
2019-05-11T10:09:59.197Z,58.00
2019-05-11T10:12:03.941Z,58.20
2019-05-11T10:14:08.768Z,58.00
2019-05-11T10:16:13.551Z,57.80
2019-05-11T10:18:18.687Z,57.20
2019-05-11T10:20:23.531Z,57.90
2019-05-11T10:22:31.279Z,57.80
2019-05-11T10:24:38.312Z,57.30
2019-05-11T10:26:43.391Z,56.60
2019-05-11T10:28:48.459Z,56.00
2019-05-11T10:30:54.304Z,55.90
2019-05-11T10:32:59.066Z,55.60
2019-05-11T10:35:04.627Z,57.10
2019-05-11T10:37:12.383Z,56.80
2019-05-11T10:39:19.841Z,57.20
2019-05-11T10:41:24.587Z,57.00
2019-05-11T10:43:32.357Z,57.30
2019-05-11T10:45:37.921Z,56.60
2019-05-11T10:47:48.731Z,56.30
2019-05-11T10:49:54.149Z,56.00
2019-05-11T10:51:58.926Z,55.80
2019-05-11T10:54:04.147Z,56.10
2019-05-11T10:56:08.940Z,55.60
2019-05-11T10:58:18.467Z,56.30
2019-05-11T11:00:24.082Z,56.10
2019-05-11T11:02:31.891Z,55.70
2019-05-11T11:04:39.351Z,55.80
2019-05-11T11:06:50.038Z,56.10
2019-05-11T11:08:57.902Z,54.90
2019-05-11T11:11:02.443Z,55.60
2019-05-11T11:13:08.284Z,55.90
2019-05-11T11:15:13.209Z,55.50
2019-05-11T11:17:20.644Z,55.00
2019-05-11T11:19:29.097Z,55.50
2019-05-11T11:21:35.063Z,55.40
2019-05-11T11:23:39.813Z,54.90
2019-05-11T11:25:48.142Z,55.00
2019-05-11T11:27:53.989Z,54.90
2019-05-11T11:29:58.784Z,54.30
2019-05-11T11:32:08.042Z,54.80
2019-05-11T11:34:15.982Z,54.70
2019-05-11T11:36:20.712Z,54.60
2019-05-11T11:38:25.489Z,53.90
2019-05-11T11:40:30.272Z,53.40
2019-05-11T11:42:37.885Z,52.20
2019-05-11T11:44:45.599Z,52.20
2019-05-11T11:46:54.960Z,52.90
2019-05-11T11:48:59.786Z,53.40
2019-05-11T11:51:04.748Z,53.60
2019-05-11T11:53:09.516Z,53.30
2019-05-11T11:55:14.296Z,53.50
2019-05-11T11:57:19.047Z,53.70
2019-05-11T11:59:23.785Z,53.30
2019-05-11T12:01:32.940Z,53.00
2019-05-11T12:03:38.073Z,52.90
2019-05-11T12:05:42.868Z,53.30
2019-05-11T12:07:50.054Z,52.60
2019-05-11T12:09:58.736Z,52.60
2019-05-11T12:12:05.090Z,52.50
2019-05-11T12:14:12.909Z,52.60
2019-05-11T12:16:18.205Z,52.70
2019-05-11T12:18:28.519Z,52.40
2019-05-11T12:20:32.687Z,52.60
2019-05-11T12:22:40.460Z,51.00
2019-05-11T12:24:45.206Z,51.90
2019-05-11T12:26:49.964Z,52.20
2019-05-11T12:28:54.697Z,52.30
2019-05-11T12:30:59.456Z,52.20
2019-05-11T12:33:08.270Z,52.10
2019-05-11T12:35:17.857Z,51.60
2019-05-11T12:37:25.655Z,50.80
2019-05-11T12:39:33.549Z,50.80
2019-05-11T12:41:38.825Z,51.20
2019-05-11T12:43:48.685Z,51.40
2019-05-11T12:45:58.576Z,51.50
2019-05-11T12:48:05.428Z,51.50
2019-05-11T12:50:13.423Z,50.80
2019-05-11T12:52:18.588Z,51.30
2019-05-11T12:54:23.403Z,51.50
2019-05-11T12:56:28.175Z,51.50
2019-05-11T12:58:32.905Z,51.70
2019-05-11T13:00:39.205Z,51.50
2019-05-11T13:02:45.119Z,51.00
2019-05-11T13:04:50.837Z,50.80
2019-05-11T13:06:55.559Z,51.20
2019-05-11T13:09:00.626Z,50.50
2019-05-11T13:11:07.994Z,50.40
2019-05-11T13:13:12.812Z,50.60
2019-05-11T13:15:17.706Z,50.30
2019-05-11T13:17:34.035Z,50.40
2019-05-11T13:19:28.775Z,49.90
2019-05-11T13:21:38.227Z,49.70
2019-05-11T13:23:44.378Z,49.60
2019-05-11T13:25:52.122Z,49.50
2019-05-11T13:27:59.782Z,49.30
2019-05-11T13:30:09.515Z,49.70
2019-05-11T13:32:20.094Z,49.60
2019-05-11T13:34:38.729Z,49.40
2019-05-11T13:36:43.633Z,49.20
2019-05-11T13:38:49.389Z,49.20
2019-05-11T13:40:54.338Z,49.20
2019-05-11T13:43:01.860Z,49.70
2019-05-11T13:45:08.529Z,49.70
2019-05-11T13:47:18.081Z,49.70
2019-05-11T13:49:22.713Z,49.90
2019-05-11T13:51:28.538Z,49.90
2019-05-11T13:53:33.434Z,50.20
2019-05-11T13:55:39.756Z,49.60
2019-05-11T13:57:44.572Z,48.90
2019-05-11T13:59:49.288Z,48.70
2019-05-11T14:01:54.032Z,48.70
2019-05-11T14:03:59.018Z,48.50
2019-05-11T14:06:03.780Z,48.60
2019-05-11T14:08:08.826Z,48.50
2019-05-11T14:10:13.606Z,49.10
2019-05-11T14:12:18.406Z,49.30
2019-05-11T14:14:23.158Z,49.20
2019-05-11T14:16:27.878Z,49.20
2019-05-11T14:18:32.736Z,49.20
2019-05-11T14:20:37.974Z,49.10
2019-05-11T14:22:42.797Z,49.00
2019-05-11T14:24:48.355Z,49.50
2019-05-11T14:26:53.173Z,48.70
2019-05-11T14:28:59.049Z,48.60
2019-05-11T14:31:03.917Z,48.20
2019-05-11T14:33:08.928Z,48.20
2019-05-11T14:35:13.812Z,48.10
2019-05-11T14:37:18.585Z,48.30
2019-05-11T14:39:27.954Z,48.20
2019-05-11T14:41:38.515Z,48.70
2019-05-11T14:43:43.291Z,48.90
2019-05-11T14:45:48.610Z,49.00
2019-05-11T14:47:53.549Z,48.90
2019-05-11T14:49:58.583Z,48.40
2019-05-11T14:52:03.265Z,48.40
2019-05-11T14:54:10.947Z,48.50
2019-05-11T14:56:19.199Z,48.50
2019-05-11T14:58:24.085Z,48.50
2019-05-11T15:00:39.479Z,47.90
2019-05-11T15:02:49.172Z,47.70
2019-05-11T15:04:53.910Z,47.60
2019-05-11T15:06:58.926Z,47.60
2019-05-11T15:09:07.614Z,47.10
2019-05-11T15:11:11.867Z,47.40
2019-05-11T15:13:18.468Z,47.40
2019-05-11T15:15:27.941Z,47.00
2019-05-11T15:17:32.883Z,46.70
2019-05-11T15:19:38.295Z,46.90
2019-05-11T15:21:47.589Z,47.00
2019-05-11T15:23:52.493Z,46.90
2019-05-11T15:25:58.682Z,47.20
2019-05-11T15:28:03.535Z,47.20
2019-05-11T15:30:08.337Z,46.80
2019-05-11T15:32:18.763Z,47.10
2019-05-11T15:34:23.515Z,47.40
2019-05-11T15:36:28.652Z,47.30
2019-05-11T15:38:33.439Z,46.70
2019-05-11T15:40:38.425Z,46.80
2019-05-11T15:42:43.321Z,46.90
2019-05-11T15:44:51.085Z,46.80
2019-05-11T15:46:58.199Z,46.80
2019-05-11T15:49:03.628Z,46.50
2019-05-11T15:51:09.807Z,46.40
2019-05-11T15:53:14.584Z,46.70
2019-05-11T15:55:20.302Z,46.50
2019-05-11T15:57:25.080Z,46.30
2019-05-11T15:59:30.551Z,46.50
2019-05-11T16:01:40.745Z,46.30
2019-05-11T16:03:42.871Z,46.10
2019-05-11T16:05:47.936Z,46.10
2019-05-11T16:07:54.749Z,46.60
2019-05-11T16:09:59.498Z,46.00
2019-05-11T16:12:04.200Z,46.10
2019-05-11T16:14:09.106Z,46.30
2019-05-11T16:16:13.810Z,46.20
2019-05-11T16:18:19.039Z,46.40
2019-05-11T16:20:24.800Z,46.60
2019-05-11T16:22:29.584Z,45.80
2019-05-11T16:24:34.338Z,46.00
2019-05-11T16:26:39.006Z,45.80
2019-05-11T16:28:43.696Z,46.10
2019-05-11T16:30:48.446Z,46.90
2019-05-11T16:32:53.928Z,45.80
2019-05-11T16:35:00.435Z,45.40
2019-05-11T16:37:07.784Z,45.60
2019-05-11T16:39:14.651Z,45.50
2019-05-11T16:41:21.262Z,46.00
2019-05-11T16:43:27.982Z,46.20
2019-05-11T16:45:32.434Z,45.60
2019-05-11T16:47:39.078Z,45.50
2019-05-11T16:49:43.651Z,45.60
2019-05-11T16:51:48.313Z,45.80
2019-05-11T16:53:53.402Z,45.70
2019-05-11T16:55:58.090Z,45.70
2019-05-11T16:58:03.852Z,45.40
2019-05-11T17:00:09.011Z,45.20
2019-05-11T17:02:13.834Z,45.20
2019-05-11T17:04:18.550Z,45.40
2019-05-11T17:06:23.299Z,45.20
2019-05-11T17:08:28.043Z,45.30
2019-05-11T17:10:32.802Z,45.40
2019-05-11T17:12:38.565Z,45.40
2019-05-11T17:14:59.179Z,45.50
2019-05-11T17:17:03.837Z,45.30
2019-05-11T17:19:08.548Z,45.00
2019-05-11T17:21:13.239Z,45.00
2019-05-11T17:23:18.398Z,44.70
2019-05-11T17:25:23.187Z,45.30
2019-05-11T17:27:29.595Z,44.30
2019-05-11T17:29:34.335Z,44.70
2019-05-11T17:31:43.842Z,44.70
2019-05-11T17:33:48.512Z,44.70
2019-05-11T17:35:53.365Z,44.80
2019-05-11T17:37:58.027Z,44.50
2019-05-11T17:40:03.283Z,44.20
2019-05-11T17:42:08.967Z,43.90
2019-05-11T17:44:13.909Z,44.20
2019-05-11T17:46:18.698Z,44.20
2019-05-11T17:48:23.437Z,44.60
2019-05-11T17:50:28.394Z,44.50
2019-05-11T17:52:33.133Z,44.80
2019-05-11T17:54:38.319Z,44.80
2019-05-11T17:56:43.327Z,44.80
2019-05-11T17:58:48.402Z,44.80
2019-05-11T18:00:53.234Z,45.00
2019-05-11T18:02:58.405Z,44.60
2019-05-11T18:05:03.732Z,45.00
2019-05-11T18:07:08.468Z,45.10
2019-05-11T18:09:13.167Z,44.70
2019-05-11T18:11:18.509Z,44.50
2019-05-11T18:13:23.425Z,44.50
2019-05-11T18:15:31.232Z,44.10
2019-05-11T18:17:38.663Z,44.20
2019-05-11T18:19:43.399Z,43.90
2019-05-11T18:21:48.780Z,43.90
2019-05-11T18:23:53.539Z,43.80
2019-05-11T18:25:58.323Z,44.20
2019-05-11T18:28:05.790Z,44.30
2019-05-11T18:30:10.486Z,44.30
2019-05-11T18:32:15.251Z,44.50
2019-05-11T18:34:20.682Z,44.70
2019-05-11T18:36:25.370Z,44.50
2019-05-11T18:38:30.122Z,44.50
2019-05-11T18:40:34.872Z,44.60
2019-05-11T18:42:39.580Z,44.60
2019-05-11T18:44:44.256Z,44.80
2019-05-11T18:46:49.137Z,44.90
2019-05-11T18:48:53.876Z,44.90
2019-05-11T18:51:03.217Z,45.00
2019-05-11T18:53:09.130Z,45.00
2019-05-11T18:55:14.159Z,45.00
2019-05-11T18:57:18.880Z,45.20
2019-05-11T18:59:23.614Z,45.40
2019-05-11T19:01:28.638Z,45.40
2019-05-11T19:03:33.386Z,45.50
2019-05-11T19:05:38.571Z,46.30
2019-05-11T19:07:43.631Z,45.40
2019-05-11T19:09:48.552Z,45.50
2019-05-11T19:11:53.405Z,45.60
2019-05-11T19:13:58.285Z,45.70
2019-05-11T19:16:08.577Z,45.80
2019-05-11T19:18:13.843Z,45.80
2019-05-11T19:20:18.565Z,45.80
2019-05-11T19:22:23.298Z,45.50
2019-05-11T19:24:28.167Z,45.60
2019-05-11T19:26:32.950Z,45.70
2019-05-11T19:28:38.487Z,45.50
2019-05-11T19:30:43.439Z,45.30
2019-05-11T19:32:48.812Z,45.40
2019-05-11T19:34:53.760Z,45.50
2019-05-11T19:36:58.453Z,45.70
2019-05-11T19:39:04.758Z,45.70
2019-05-11T19:41:12.275Z,45.70
2019-05-11T19:43:18.519Z,45.80
2019-05-11T19:45:23.617Z,45.90
2019-05-11T19:47:31.407Z,45.90
2019-05-11T19:49:38.869Z,45.80
2019-05-11T19:51:43.538Z,45.90
2019-05-11T19:53:48.498Z,46.10
2019-05-11T19:55:53.228Z,46.10
2019-05-11T19:57:58.183Z,46.00
2019-05-11T20:00:07.898Z,45.90
2019-05-11T20:02:12.789Z,46.60
2019-05-11T20:04:19.141Z,46.10
2019-05-11T20:06:23.887Z,46.30
2019-05-11T20:08:29.196Z,46.30
2019-05-11T20:10:34.067Z,46.50
2019-05-11T20:12:41.613Z,47.10
2019-05-11T20:14:45.195Z,46.60
2019-05-11T20:16:50.623Z,46.50
2019-05-11T20:18:57.737Z,46.70
2019-05-11T20:21:15.631Z,46.70
2019-05-11T20:23:08.202Z,46.70
2019-05-11T20:25:13.931Z,46.70
2019-05-11T20:27:18.749Z,46.60
2019-05-11T20:29:23.449Z,46.60
2019-05-11T20:31:28.302Z,46.60
2019-05-11T20:33:33.122Z,46.70
2019-05-11T20:35:38.910Z,46.80
2019-05-11T20:37:46.428Z,46.90
2019-05-11T20:39:51.311Z,46.90
2019-05-11T20:41:58.081Z,46.90
2019-05-11T20:44:02.491Z,46.90
2019-05-11T20:46:08.180Z,46.80
2019-05-11T20:48:13.154Z,46.90
2019-05-11T20:50:18.505Z,47.00
2019-05-11T20:52:23.484Z,46.90
2019-05-11T20:54:28.297Z,46.90
2019-05-11T20:56:33.996Z,46.90
2019-05-11T20:58:59.221Z,47.10
2019-05-11T21:01:03.168Z,46.90
2019-05-11T21:03:08.078Z,46.90
2019-05-11T21:05:12.875Z,46.90
2019-05-11T21:07:19.969Z,46.90
2019-05-11T21:09:24.824Z,46.90
2019-05-11T21:11:29.604Z,47.10
2019-05-11T21:13:34.352Z,47.10
2019-05-11T21:15:39.034Z,47.10
2019-05-11T21:17:43.774Z,47.30
2019-05-11T21:19:48.460Z,47.40
2019-05-11T21:21:53.952Z,47.50
2019-05-11T21:23:58.794Z,47.50
2019-05-11T21:26:04.444Z,47.60
2019-05-11T21:28:09.164Z,47.50
2019-05-11T21:30:13.833Z,47.70
2019-05-11T21:32:18.616Z,47.70
2019-05-11T21:34:23.365Z,47.70
2019-05-11T21:36:29.091Z,47.60
2019-05-11T21:38:33.854Z,47.70
2019-05-11T21:40:38.663Z,47.80
2019-05-11T21:42:43.420Z,47.70
2019-05-11T21:44:48.170Z,47.80
2019-05-11T21:46:52.878Z,47.80
2019-05-11T21:49:10.161Z,47.80
2019-05-11T21:51:14.931Z,48.00
2019-05-11T21:53:19.618Z,47.90
2019-05-11T21:55:24.285Z,47.90
2019-05-11T21:57:28.989Z,48.00
2019-05-11T21:59:33.657Z,48.00
2019-05-11T22:01:38.696Z,48.00
2019-05-11T22:03:44.499Z,48.10
2019-05-11T22:05:49.343Z,48.20
2019-05-11T22:07:54.106Z,48.20
2019-05-11T22:09:59.993Z,48.30
2019-05-11T22:12:04.841Z,48.30
2019-05-11T22:14:09.617Z,48.40
2019-05-11T22:16:14.341Z,48.20
2019-05-11T22:18:30.230Z,48.20
2019-05-11T22:20:25.843Z,48.20
2019-05-11T22:22:30.567Z,48.30
2019-05-11T22:24:35.272Z,48.30
2019-05-11T22:26:40.027Z,48.30
2019-05-11T22:28:44.793Z,48.40
2019-05-11T22:30:49.447Z,48.40
2019-05-11T22:32:54.127Z,48.40
2019-05-11T22:35:03.529Z,48.40
2019-05-11T22:37:08.647Z,48.30
2019-05-11T22:39:20.587Z,48.30
2019-05-11T22:41:23.013Z,48.40
2019-05-11T22:43:28.487Z,48.30
2019-05-11T22:45:33.315Z,48.40
2019-05-11T22:47:39.455Z,48.40
2019-05-11T22:49:44.376Z,48.70
2019-05-11T22:51:49.130Z,48.60
2019-05-11T22:53:53.886Z,48.60
2019-05-11T22:56:10.548Z,48.70
2019-05-11T22:58:17.763Z,48.70
2019-05-11T23:00:43.914Z,48.70
2019-05-11T23:02:48.619Z,48.70
2019-05-11T23:04:53.355Z,48.80
2019-05-11T23:06:58.432Z,48.80
2019-05-11T23:09:03.971Z,49.30
2019-05-11T23:11:10.616Z,49.10
2019-05-11T23:13:18.710Z,49.10
2019-05-11T23:15:23.726Z,49.10
2019-05-11T23:17:28.529Z,49.10
2019-05-11T23:19:33.316Z,49.10
2019-05-11T23:21:38.814Z,49.10
2019-05-11T23:23:43.746Z,49.10
2019-05-11T23:25:48.521Z,49.10
2019-05-11T23:27:53.196Z,48.90
2019-05-11T23:29:58.141Z,48.90
2019-05-11T23:32:02.908Z,48.90
2019-05-11T23:34:08.298Z,48.90
2019-05-11T23:36:13.146Z,48.90
2019-05-11T23:38:17.902Z,49.00
2019-05-11T23:40:25.597Z,49.10
2019-05-11T23:42:30.994Z,49.00
2019-05-11T23:44:35.811Z,49.10
2019-05-11T23:46:40.543Z,49.30
2019-05-11T23:48:45.315Z,49.30
2019-05-11T23:50:50.090Z,49.20
2019-05-11T23:53:06.091Z,49.30
2019-05-11T23:55:01.541Z,49.20
2019-05-11T23:57:09.326Z,49.30
2019-05-11T23:59:12.697Z,49.30
